Airfield :
LOGIN :

Register | Disclaimer

   EN    FR    IT 

 










Legend :    VFR   Marginal VFR   IFR   Intensive IFR   Very Intensive IFR
Visi :
Ceiling :
>= 8 km
>= 3000ft
5 to 8 km
1000 to 3000 ft
1500m to 5 km
500 to 1000 ft
800 to 1500m
200 to 500 ft
< 800m
< 200 ft
Symbols :   Thunderstorms  Fog  Heavy snow  Heavy precipitations  Wind > 20 kt
SIGMETs :     Misc.  Thunderstorms  Icing  Turbulence  Mountain Waves  Volcanic Ashes







- Airport Elevation : 13 ft
- IATA code : OST


EBOS - Oostend bruges Int.

CURRENT METAR :
  • 160150Z 21005KT 9999 FEW020 14/12 Q1017 NOSIG

EXPIRED METARs :
  • 160120Z 21007KT 9999 FEW020 15/12 Q1017 NOSIG
  • 160050Z 20008KT 9999 FEW021 15/13 Q1017 NOSIG
  • 160020Z 20008KT 9999 FEW021 15/12 Q1017 NOSIG
  • 152350Z 20008KT 9999 FEW021 15/12 Q1017 NOSIG
  • 152320Z 21006KT 9999 FEW021 14/12 Q1018 NOSIG

TAF TAF EBOS
Valid from the 16 at 00:00 until the 17 at 06:00 UTC


152320Z 1600/1706 20008KT 9999 SCT020
BECMG 1612/1614 27011KT
PROB30
TEMPO 1614/1616 27015G25KT
PROB40
TEMPO 1618/1623 VRB18G30KT 2000 SHRA TSRA BKN006CB
BECMG 1621/1623 VRB03KT
No reported NOTAMs for that airfield.



MET'MAP, your aeronautical weather chart ! - Copyright ORBIFLY December 2007 - Disclaimer

ORBIFLY MET'MAP TEAM :

Programming & Development : Alexandra Zaïnal
Concept & Development : Baudouin d'Aumeries
Co-Development & Prog : Marc-Olivier Méhu
Technical & hardware support : Manuel Goepfert

Contact : metmap@orbifly.com




SOURCES & CREDITS :

   NOAA